Terminal Aerodrome Forecast
Issued by NWS

Home | Current Version | Previous Version | Text Only | Print | Product List | Glossary On
Versions: 1 2 3 4 5 6 7 8 9 10 11 12 13 14 15 16 17 18 19 20 21 22 23 24 25 26 27 28 29 30 31 32 33 34 35 36 37
000
FTUS46 KEKA 240803 AAA
TAFACV
TAF AMD
KACV 240803Z 2408/2506 11004KT P6SM FEW003
     FM240930 11003KT 6SM BR BKN007
     FM241700 30004KT P6SM SKC
     FM242000 31010G17KT P6SM SKC
     FM250100 33009KT P6SM SKC
     FM250400 13003KT P6SM SCT005=

USA.gov is the U.S. government's official web portal to all federal, state and local government web resources and services.